sensor_id;sensor_type;location;lat;lon;timestamp;temperature;humidity
56162;DHT22;42045;52.986;6.014;2023-01-29T00:01:27;4.00;99.90
56162;DHT22;42045;52.986;6.014;2023-01-29T00:03:53;4.00;99.90
56162;DHT22;42045;52.986;6.014;2023-01-29T00:06:18;4.00;99.90
56162;DHT22;42045;52.986;6.014;2023-01-29T00:08:44;4.00;99.90
56162;DHT22;42045;52.986;6.014;2023-01-29T00:11:11;4.10;99.90
56162;DHT22;42045;52.986;6.014;2023-01-29T00:13:37;4.10;99.90
56162;DHT22;42045;52.986;6.014;2023-01-29T00:16:03;4.10;99.90
56162;DHT22;42045;52.986;6.014;2023-01-29T00:18:29;4.00;99.90
56162;DHT22;42045;52.986;6.014;2023-01-29T00:20:55;4.00;99.90
56162;DHT22;42045;52.986;6.014;2023-01-29T00:23:21;4.00;99.90
56162;DHT22;42045;52.986;6.014;2023-01-29T00:25:48;4.00;99.90
56162;DHT22;42045;52.986;6.014;2023-01-29T00:28:14;4.00;99.90
56162;DHT22;42045;52.986;6.014;2023-01-29T00:30:40;4.00;99.90
56162;DHT22;42045;52.986;6.014;2023-01-29T00:33:06;4.00;99.90
56162;DHT22;42045;52.986;6.014;2023-01-29T00:35:32;4.10;99.90
56162;DHT22;42045;52.986;6.014;2023-01-29T00:37:58;4.10;99.90
56162;DHT22;42045;52.986;6.014;2023-01-29T00:40:26;4.10;99.90
56162;DHT22;42045;52.986;6.014;2023-01-29T00:42:52;4.10;99.90
56162;DHT22;42045;52.986;6.014;2023-01-29T00:45:36;4.10;99.90
56162;DHT22;42045;52.986;6.014;2023-01-29T00:48:03;4.10;99.90
56162;DHT22;42045;52.986;6.014;2023-01-29T00:50:29;4.10;99.90
56162;DHT22;42045;52.986;6.014;2023-01-29T00:52:55;4.10;99.90
56162;DHT22;42045;52.986;6.014;2023-01-29T00:55:21;4.10;99.90
56162;DHT22;42045;52.986;6.014;2023-01-29T00:57:46;4.10;99.90
56162;DHT22;42045;52.986;6.014;2023-01-29T01:00:15;4.10;99.90
56162;DHT22;42045;52.986;6.014;2023-01-29T01:02:41;4.10;99.90
56162;DHT22;42045;52.986;6.014;2023-01-29T01:05:25;4.10;99.90
56162;DHT22;42045;52.986;6.014;2023-01-29T01:07:53;4.10;99.90
56162;DHT22;42045;52.986;6.014;2023-01-29T01:10:30;4.10;99.90
56162;DHT22;42045;52.986;6.014;2023-01-29T01:13:00;4.10;99.90
56162;DHT22;42045;52.986;6.014;2023-01-29T01:15:33;4.10;99.90
56162;DHT22;42045;52.986;6.014;2023-01-29T01:18:00;4.10;99.90
56162;DHT22;42045;52.986;6.014;2023-01-29T01:20:29;4.10;99.90
56162;DHT22;42045;52.986;6.014;2023-01-29T01:22:55;4.10;99.90
56162;DHT22;42045;52.986;6.014;2023-01-29T01:25:22;4.10;99.90
56162;DHT22;42045;52.986;6.014;2023-01-29T01:27:54;4.10;99.90
56162;DHT22;42045;52.986;6.014;2023-01-29T01:30:20;4.10;99.90
56162;DHT22;42045;52.986;6.014;2023-01-29T01:32:46;4.10;99.90
56162;DHT22;42045;52.986;6.014;2023-01-29T01:35:12;4.10;99.90
56162;DHT22;42045;52.986;6.014;2023-01-29T01:37:41;4.10;99.90
56162;DHT22;42045;52.986;6.014;2023-01-29T01:40:16;4.20;99.90
56162;DHT22;42045;52.986;6.014;2023-01-29T01:42:49;4.10;99.90
56162;DHT22;42045;52.986;6.014;2023-01-29T01:45:23;4.20;99.90
56162;DHT22;42045;52.986;6.014;2023-01-29T01:47:58;4.20;99.90
56162;DHT22;42045;52.986;6.014;2023-01-29T01:50:34;4.10;99.90
56162;DHT22;42045;52.986;6.014;2023-01-29T01:53:11;4.10;99.90
56162;DHT22;42045;52.986;6.014;2023-01-29T01:55:41;4.20;99.90
56162;DHT22;42045;52.986;6.014;2023-01-29T01:58:13;4.20;99.90
56162;DHT22;42045;52.986;6.014;2023-01-29T02:00:41;4.10;99.90
56162;DHT22;42045;52.986;6.014;2023-01-29T02:03:08;4.20;99.90
56162;DHT22;42045;52.986;6.014;2023-01-29T02:05:54;4.20;99.90
56162;DHT22;42045;52.986;6.014;2023-01-29T02:08:59;4.20;99.90
56162;DHT22;42045;52.986;6.014;2023-01-29T02:11:45;4.20;99.90
56162;DHT22;42045;52.986;6.014;2023-01-29T02:14:11;4.20;99.90
56162;DHT22;42045;52.986;6.014;2023-01-29T02:16:37;4.20;99.90
56162;DHT22;42045;52.986;6.014;2023-01-29T02:19:05;4.20;99.90
56162;DHT22;42045;52.986;6.014;2023-01-29T02:24:55;4.20;99.90
56162;DHT22;42045;52.986;6.014;2023-01-29T02:27:31;4.20;99.90
56162;DHT22;42045;52.986;6.014;2023-01-29T02:30:27;4.20;99.90
56162;DHT22;42045;52.986;6.014;2023-01-29T02:33:00;4.20;99.90
56162;DHT22;42045;52.986;6.014;2023-01-29T02:46:15;4.20;99.90
56162;DHT22;42045;52.986;6.014;2023-01-29T02:54:40;4.20;99.90
56162;DHT22;42045;52.986;6.014;2023-01-29T02:57:23;4.20;99.90
56162;DHT22;42045;52.986;6.014;2023-01-29T02:59:52;4.20;99.90
56162;DHT22;42045;52.986;6.014;2023-01-29T03:02:50;4.20;99.90
56162;DHT22;42045;52.986;6.014;2023-01-29T03:05:46;4.20;99.90
56162;DHT22;42045;52.986;6.014;2023-01-29T03:08:14;4.20;99.90
56162;DHT22;42045;52.986;6.014;2023-01-29T03:10:52;4.20;99.90
56162;DHT22;42045;52.986;6.014;2023-01-29T03:16:59;4.20;99.90
56162;DHT22;42045;52.986;6.014;2023-01-29T03:19:34;4.20;99.90
56162;DHT22;42045;52.986;6.014;2023-01-29T03:22:00;4.20;99.90
56162;DHT22;42045;52.986;6.014;2023-01-29T03:27:18;4.20;99.90
56162;DHT22;42045;52.986;6.014;2023-01-29T03:30:05;4.20;99.90
56162;DHT22;42045;52.986;6.014;2023-01-29T03:32:51;4.20;99.90
56162;DHT22;42045;52.986;6.014;2023-01-29T03:35:21;4.20;99.90
56162;DHT22;42045;52.986;6.014;2023-01-29T03:38:06;4.20;99.90
56162;DHT22;42045;52.986;6.014;2023-01-29T03:44:06;4.20;99.90
56162;DHT22;42045;52.986;6.014;2023-01-29T03:46:49;4.20;99.90
56162;DHT22;42045;52.986;6.014;2023-01-29T03:49:29;4.20;99.90
56162;DHT22;42045;52.986;6.014;2023-01-29T03:52:01;4.20;99.90
56162;DHT22;42045;52.986;6.014;2023-01-29T04:00:06;4.20;99.90
56162;DHT22;42045;52.986;6.014;2023-01-29T04:02:54;4.20;99.90
56162;DHT22;42045;52.986;6.014;2023-01-29T04:05:24;4.20;99.90
56162;DHT22;42045;52.986;6.014;2023-01-29T04:08:00;4.20;99.90
56162;DHT22;42045;52.986;6.014;2023-01-29T04:10:28;4.20;99.90
56162;DHT22;42045;52.986;6.014;2023-01-29T04:13:01;4.20;99.90
56162;DHT22;42045;52.986;6.014;2023-01-29T04:15:30;4.20;99.90
56162;DHT22;42045;52.986;6.014;2023-01-29T04:17:58;4.20;99.90
56162;DHT22;42045;52.986;6.014;2023-01-29T04:20:24;4.20;99.90
56162;DHT22;42045;52.986;6.014;2023-01-29T04:22:51;4.20;99.90
56162;DHT22;42045;52.986;6.014;2023-01-29T04:25:21;4.20;99.90
56162;DHT22;42045;52.986;6.014;2023-01-29T04:41:51;4.20;99.90
56162;DHT22;42045;52.986;6.014;2023-01-29T04:47:14;4.20;99.90
56162;DHT22;42045;52.986;6.014;2023-01-29T05:00:32;4.30;99.90
56162;DHT22;42045;52.986;6.014;2023-01-29T05:02:59;4.30;99.90
56162;DHT22;42045;52.986;6.014;2023-01-29T05:05:26;4.30;99.90
56162;DHT22;42045;52.986;6.014;2023-01-29T05:07:53;4.20;99.90
56162;DHT22;42045;52.986;6.014;2023-01-29T05:10:20;4.30;99.90
56162;DHT22;42045;52.986;6.014;2023-01-29T05:12:52;4.30;99.90
56162;DHT22;42045;52.986;6.014;2023-01-29T05:15:23;4.30;99.90
56162;DHT22;42045;52.986;6.014;2023-01-29T05:17:50;4.20;99.90
56162;DHT22;42045;52.986;6.014;2023-01-29T05:20:18;4.30;99.90
56162;DHT22;42045;52.986;6.014;2023-01-29T05:22:45;4.20;99.90
56162;DHT22;42045;52.986;6.014;2023-01-29T05:25:23;4.20;99.90
56162;DHT22;42045;52.986;6.014;2023-01-29T05:27:50;4.20;99.90
56162;DHT22;42045;52.986;6.014;2023-01-29T05:30:28;4.20;99.90
56162;DHT22;42045;52.986;6.014;2023-01-29T05:32:54;4.20;99.90
56162;DHT22;42045;52.986;6.014;2023-01-29T05:35:19;4.20;99.90
56162;DHT22;42045;52.986;6.014;2023-01-29T05:37:45;4.20;99.90
56162;DHT22;42045;52.986;6.014;2023-01-29T05:40:11;4.20;99.90
56162;DHT22;42045;52.986;6.014;2023-01-29T05:42:36;4.20;99.90
56162;DHT22;42045;52.986;6.014;2023-01-29T05:45:03;4.10;99.90
56162;DHT22;42045;52.986;6.014;2023-01-29T05:47:28;4.20;99.90
56162;DHT22;42045;52.986;6.014;2023-01-29T05:49:54;4.20;99.90
56162;DHT22;42045;52.986;6.014;2023-01-29T05:52:19;4.20;99.90
56162;DHT22;42045;52.986;6.014;2023-01-29T05:54:45;4.20;99.90
56162;DHT22;42045;52.986;6.014;2023-01-29T05:57:11;4.20;99.90
56162;DHT22;42045;52.986;6.014;2023-01-29T05:59:36;4.20;99.90
56162;DHT22;42045;52.986;6.014;2023-01-29T06:02:02;4.20;99.90
56162;DHT22;42045;52.986;6.014;2023-01-29T06:04:28;4.10;99.90
56162;DHT22;42045;52.986;6.014;2023-01-29T06:06:53;4.10;99.90
56162;DHT22;42045;52.986;6.014;2023-01-29T06:09:19;4.10;99.90
56162;DHT22;42045;52.986;6.014;2023-01-29T06:11:45;4.10;99.90
56162;DHT22;42045;52.986;6.014;2023-01-29T06:14:10;4.10;99.90
56162;DHT22;42045;52.986;6.014;2023-01-29T06:16:36;4.10;99.90
56162;DHT22;42045;52.986;6.014;2023-01-29T06:19:01;4.00;99.90
56162;DHT22;42045;52.986;6.014;2023-01-29T06:21:27;4.00;99.90
56162;DHT22;42045;52.986;6.014;2023-01-29T06:23:53;4.00;99.90
56162;DHT22;42045;52.986;6.014;2023-01-29T06:26:18;4.00;99.90
56162;DHT22;42045;52.986;6.014;2023-01-29T06:28:47;4.00;99.90
56162;DHT22;42045;52.986;6.014;2023-01-29T06:31:13;4.00;99.90
56162;DHT22;42045;52.986;6.014;2023-01-29T06:33:39;4.00;99.90
56162;DHT22;42045;52.986;6.014;2023-01-29T06:36:05;4.00;99.90
56162;DHT22;42045;52.986;6.014;2023-01-29T06:38:31;3.90;99.90
56162;DHT22;42045;52.986;6.014;2023-01-29T06:40:57;4.00;99.90
56162;DHT22;42045;52.986;6.014;2023-01-29T06:43:23;3.90;99.90
56162;DHT22;42045;52.986;6.014;2023-01-29T06:45:56;4.00;99.90
56162;DHT22;42045;52.986;6.014;2023-01-29T06:48:23;3.90;99.90
56162;DHT22;42045;52.986;6.014;2023-01-29T06:50:49;3.90;99.90
56162;DHT22;42045;52.986;6.014;2023-01-29T06:53:15;3.90;99.90
56162;DHT22;42045;52.986;6.014;2023-01-29T06:55:43;3.90;99.90
56162;DHT22;42045;52.986;6.014;2023-01-29T06:58:10;3.90;99.90
56162;DHT22;42045;52.986;6.014;2023-01-29T07:00:37;3.90;99.90
56162;DHT22;42045;52.986;6.014;2023-01-29T07:03:03;3.90;99.90
56162;DHT22;42045;52.986;6.014;2023-01-29T07:05:30;3.90;99.90
56162;DHT22;42045;52.986;6.014;2023-01-29T07:07:56;3.90;99.90
56162;DHT22;42045;52.986;6.014;2023-01-29T07:10:22;3.90;99.90
56162;DHT22;42045;52.986;6.014;2023-01-29T07:12:47;3.90;99.90
56162;DHT22;42045;52.986;6.014;2023-01-29T07:15:13;3.90;99.90
56162;DHT22;42045;52.986;6.014;2023-01-29T07:17:39;3.90;99.90
56162;DHT22;42045;52.986;6.014;2023-01-29T07:20:05;3.90;99.90
56162;DHT22;42045;52.986;6.014;2023-01-29T07:22:32;3.90;99.90
56162;DHT22;42045;52.986;6.014;2023-01-29T07:24:57;3.90;99.90
56162;DHT22;42045;52.986;6.014;2023-01-29T07:27:23;3.90;99.90
56162;DHT22;42045;52.986;6.014;2023-01-29T07:29:49;3.80;99.90
56162;DHT22;42045;52.986;6.014;2023-01-29T07:32:15;3.80;99.90
56162;DHT22;42045;52.986;6.014;2023-01-29T07:34:40;3.80;99.90
56162;DHT22;42045;52.986;6.014;2023-01-29T07:37:06;3.90;99.90
56162;DHT22;42045;52.986;6.014;2023-01-29T07:39:32;3.90;99.90
56162;DHT22;42045;52.986;6.014;2023-01-29T07:41:57;3.90;99.90
56162;DHT22;42045;52.986;6.014;2023-01-29T07:44:23;3.90;99.90
56162;DHT22;42045;52.986;6.014;2023-01-29T07:46:49;3.90;99.90
56162;DHT22;42045;52.986;6.014;2023-01-29T07:49:15;3.90;99.90
56162;DHT22;42045;52.986;6.014;2023-01-29T07:51:41;3.90;99.90
56162;DHT22;42045;52.986;6.014;2023-01-29T07:54:06;3.90;99.90
56162;DHT22;42045;52.986;6.014;2023-01-29T07:56:32;3.90;99.90
56162;DHT22;42045;52.986;6.014;2023-01-29T07:58:58;3.90;99.90
56162;DHT22;42045;52.986;6.014;2023-01-29T08:01:23;4.00;99.90
56162;DHT22;42045;52.986;6.014;2023-01-29T08:03:49;4.00;99.90
56162;DHT22;42045;52.986;6.014;2023-01-29T08:06:15;3.90;99.90
56162;DHT22;42045;52.986;6.014;2023-01-29T08:08:41;4.00;99.90
56162;DHT22;42045;52.986;6.014;2023-01-29T08:11:07;4.00;99.90
56162;DHT22;42045;52.986;6.014;2023-01-29T08:13:33;4.00;99.90
56162;DHT22;42045;52.986;6.014;2023-01-29T08:16:00;4.10;99.90
56162;DHT22;42045;52.986;6.014;2023-01-29T08:18:26;4.10;99.90
56162;DHT22;42045;52.986;6.014;2023-01-29T08:20:51;4.00;99.90
56162;DHT22;42045;52.986;6.014;2023-01-29T08:23:17;4.20;99.90
56162;DHT22;42045;52.986;6.014;2023-01-29T08:25:43;4.20;99.90
56162;DHT22;42045;52.986;6.014;2023-01-29T08:28:09;4.20;99.90
56162;DHT22;42045;52.986;6.014;2023-01-29T08:30:37;4.10;99.90
56162;DHT22;42045;52.986;6.014;2023-01-29T08:33:03;4.10;99.90
56162;DHT22;42045;52.986;6.014;2023-01-29T08:35:29;4.20;99.90
56162;DHT22;42045;52.986;6.014;2023-01-29T08:37:56;4.20;99.90
56162;DHT22;42045;52.986;6.014;2023-01-29T08:40:24;4.30;99.90
56162;DHT22;42045;52.986;6.014;2023-01-29T08:42:50;4.30;99.90
56162;DHT22;42045;52.986;6.014;2023-01-29T08:45:16;4.30;99.90
56162;DHT22;42045;52.986;6.014;2023-01-29T08:47:46;4.30;99.90
56162;DHT22;42045;52.986;6.014;2023-01-29T08:50:12;4.30;99.90
56162;DHT22;42045;52.986;6.014;2023-01-29T08:52:38;4.40;99.90
56162;DHT22;42045;52.986;6.014;2023-01-29T08:55:04;4.30;99.90
56162;DHT22;42045;52.986;6.014;2023-01-29T08:57:30;4.30;99.90
56162;DHT22;42045;52.986;6.014;2023-01-29T08:59:55;4.40;99.90
56162;DHT22;42045;52.986;6.014;2023-01-29T09:02:21;4.40;99.90
56162;DHT22;42045;52.986;6.014;2023-01-29T09:04:46;4.40;99.90
56162;DHT22;42045;52.986;6.014;2023-01-29T09:07:12;4.40;99.90
56162;DHT22;42045;52.986;6.014;2023-01-29T09:09:38;4.40;99.90
56162;DHT22;42045;52.986;6.014;2023-01-29T09:12:04;4.40;99.90
56162;DHT22;42045;52.986;6.014;2023-01-29T09:14:29;4.40;99.90
56162;DHT22;42045;52.986;6.014;2023-01-29T09:16:55;4.40;99.90
56162;DHT22;42045;52.986;6.014;2023-01-29T09:19:21;4.40;99.90
56162;DHT22;42045;52.986;6.014;2023-01-29T09:21:47;4.50;99.90
56162;DHT22;42045;52.986;6.014;2023-01-29T09:24:14;4.50;99.90
56162;DHT22;42045;52.986;6.014;2023-01-29T09:26:40;4.50;99.90
56162;DHT22;42045;52.986;6.014;2023-01-29T09:29:07;4.50;99.90
56162;DHT22;42045;52.986;6.014;2023-01-29T09:31:34;4.50;99.90
56162;DHT22;42045;52.986;6.014;2023-01-29T09:33:59;4.60;99.90
56162;DHT22;42045;52.986;6.014;2023-01-29T09:36:25;4.60;99.90
56162;DHT22;42045;52.986;6.014;2023-01-29T09:38:50;4.60;99.90
56162;DHT22;42045;52.986;6.014;2023-01-29T09:44:29;4.60;99.90
56162;DHT22;42045;52.986;6.014;2023-01-29T09:46:59;4.50;99.90
56162;DHT22;42045;52.986;6.014;2023-01-29T09:49:38;4.50;99.90
56162;DHT22;42045;52.986;6.014;2023-01-29T09:52:28;4.50;99.90
56162;DHT22;42045;52.986;6.014;2023-01-29T09:57:57;4.50;99.90
56162;DHT22;42045;52.986;6.014;2023-01-29T10:22:07;4.60;99.90
56162;DHT22;42045;52.986;6.014;2023-01-29T10:24:43;4.70;99.90
56162;DHT22;42045;52.986;6.014;2023-01-29T10:27:16;4.70;99.90
56162;DHT22;42045;52.986;6.014;2023-01-29T10:29:43;4.70;99.90
56162;DHT22;42045;52.986;6.014;2023-01-29T10:32:20;4.70;99.90
56162;DHT22;42045;52.986;6.014;2023-01-29T10:35:05;4.80;99.90
56162;DHT22;42045;52.986;6.014;2023-01-29T10:37:42;4.80;99.90
56162;DHT22;42045;52.986;6.014;2023-01-29T10:40:40;4.80;99.90
56162;DHT22;42045;52.986;6.014;2023-01-29T10:43:13;4.90;99.90
56162;DHT22;42045;52.986;6.014;2023-01-29T10:51:13;4.90;99.90
56162;DHT22;42045;52.986;6.014;2023-01-29T10:53:59;5.00;99.90
56162;DHT22;42045;52.986;6.014;2023-01-29T11:00:16;5.00;99.90
56162;DHT22;42045;52.986;6.014;2023-01-29T11:02:14;5.00;99.90
56162;DHT22;42045;52.986;6.014;2023-01-29T11:04:40;5.00;99.90
56162;DHT22;42045;52.986;6.014;2023-01-29T11:07:07;5.00;99.90
56162;DHT22;42045;52.986;6.014;2023-01-29T11:12:18;5.10;99.90
56162;DHT22;42045;52.986;6.014;2023-01-29T11:14:50;5.00;99.90
56162;DHT22;42045;52.986;6.014;2023-01-29T11:17:19;5.10;99.90
56162;DHT22;42045;52.986;6.014;2023-01-29T11:19:47;5.20;99.90
56162;DHT22;42045;52.986;6.014;2023-01-29T11:22:18;5.10;99.90
56162;DHT22;42045;52.986;6.014;2023-01-29T11:27:42;5.10;99.90
56162;DHT22;42045;52.986;6.014;2023-01-29T11:30:18;5.10;99.90
56162;DHT22;42045;52.986;6.014;2023-01-29T11:32:47;5.20;99.90
56162;DHT22;42045;52.986;6.014;2023-01-29T11:37:44;5.20;99.90
56162;DHT22;42045;52.986;6.014;2023-01-29T11:42:48;5.30;99.90
56162;DHT22;42045;52.986;6.014;2023-01-29T11:45:26;5.40;99.90
56162;DHT22;42045;52.986;6.014;2023-01-29T11:47:55;5.30;99.90
56162;DHT22;42045;52.986;6.014;2023-01-29T11:50:30;5.40;99.90
56162;DHT22;42045;52.986;6.014;2023-01-29T11:53:00;5.40;99.90
56162;DHT22;42045;52.986;6.014;2023-01-29T11:55:31;5.50;99.90
56162;DHT22;42045;52.986;6.014;2023-01-29T11:58:00;5.40;99.90
56162;DHT22;42045;52.986;6.014;2023-01-29T12:00:30;5.50;99.90
56162;DHT22;42045;52.986;6.014;2023-01-29T12:03:11;5.50;99.90
56162;DHT22;42045;52.986;6.014;2023-01-29T12:05:38;5.50;99.90
56162;DHT22;42045;52.986;6.014;2023-01-29T12:08:15;5.60;99.90
56162;DHT22;42045;52.986;6.014;2023-01-29T12:10:42;5.50;99.90
56162;DHT22;42045;52.986;6.014;2023-01-29T12:15:46;5.40;99.90
56162;DHT22;42045;52.986;6.014;2023-01-29T12:21:37;5.50;99.90
56162;DHT22;42045;52.986;6.014;2023-01-29T12:26:56;5.30;99.90
56162;DHT22;42045;52.986;6.014;2023-01-29T12:32:16;5.20;99.90
56162;DHT22;42045;52.986;6.014;2023-01-29T12:35:16;5.20;99.90
56162;DHT22;42045;52.986;6.014;2023-01-29T12:40:33;5.20;99.90
56162;DHT22;42045;52.986;6.014;2023-01-29T12:43:04;5.20;99.90
56162;DHT22;42045;52.986;6.014;2023-01-29T12:45:31;5.20;99.90
56162;DHT22;42045;52.986;6.014;2023-01-29T12:48:03;5.10;99.90
56162;DHT22;42045;52.986;6.014;2023-01-29T12:50:35;5.10;99.90
56162;DHT22;42045;52.986;6.014;2023-01-29T12:53:25;5.00;99.90
56162;DHT22;42045;52.986;6.014;2023-01-29T12:56:04;5.00;99.90
56162;DHT22;42045;52.986;6.014;2023-01-29T12:58:37;5.00;99.90
56162;DHT22;42045;52.986;6.014;2023-01-29T13:01:14;4.90;99.90
56162;DHT22;42045;52.986;6.014;2023-01-29T13:04:02;5.00;99.90
56162;DHT22;42045;52.986;6.014;2023-01-29T13:06:37;4.90;99.90
56162;DHT22;42045;52.986;6.014;2023-01-29T13:09:12;4.90;99.90
56162;DHT22;42045;52.986;6.014;2023-01-29T13:12:01;4.80;99.90
56162;DHT22;42045;52.986;6.014;2023-01-29T13:14:48;4.90;99.90
56162;DHT22;42045;52.986;6.014;2023-01-29T13:17:27;4.80;99.90
56162;DHT22;42045;52.986;6.014;2023-01-29T13:20:15;4.90;99.90
56162;DHT22;42045;52.986;6.014;2023-01-29T13:22:43;4.80;99.90
56162;DHT22;42045;52.986;6.014;2023-01-29T13:25:16;4.80;99.90
56162;DHT22;42045;52.986;6.014;2023-01-29T13:27:43;4.90;99.90
56162;DHT22;42045;52.986;6.014;2023-01-29T13:30:31;4.90;99.90
56162;DHT22;42045;52.986;6.014;2023-01-29T13:33:00;4.80;99.90
56162;DHT22;42045;52.986;6.014;2023-01-29T13:35:41;4.80;99.90
56162;DHT22;42045;52.986;6.014;2023-01-29T13:40:48;4.80;99.90
56162;DHT22;42045;52.986;6.014;2023-01-29T13:43:22;4.80;99.90
56162;DHT22;42045;52.986;6.014;2023-01-29T13:45:50;4.90;99.90
56162;DHT22;42045;52.986;6.014;2023-01-29T13:48:28;4.90;99.90
56162;DHT22;42045;52.986;6.014;2023-01-29T13:51:02;4.90;99.90
56162;DHT22;42045;52.986;6.014;2023-01-29T13:53:35;4.80;99.90
56162;DHT22;42045;52.986;6.014;2023-01-29T13:56:27;4.70;99.90
56162;DHT22;42045;52.986;6.014;2023-01-29T13:58:54;4.80;99.90
56162;DHT22;42045;52.986;6.014;2023-01-29T14:02:00;4.70;99.90
56162;DHT22;42045;52.986;6.014;2023-01-29T14:04:29;4.70;99.90
56162;DHT22;42045;52.986;6.014;2023-01-29T14:06:57;4.70;99.90
56162;DHT22;42045;52.986;6.014;2023-01-29T14:15:00;4.70;99.90
56162;DHT22;42045;52.986;6.014;2023-01-29T14:17:27;4.60;99.90
56162;DHT22;42045;52.986;6.014;2023-01-29T14:20:14;4.70;99.90
56162;DHT22;42045;52.986;6.014;2023-01-29T14:22:42;4.50;99.90
56162;DHT22;42045;52.986;6.014;2023-01-29T14:25:16;4.50;99.90
56162;DHT22;42045;52.986;6.014;2023-01-29T14:27:46;4.60;99.90
56162;DHT22;42045;52.986;6.014;2023-01-29T14:30:16;4.70;99.90
56162;DHT22;42045;52.986;6.014;2023-01-29T14:32:46;4.70;99.90
56162;DHT22;42045;52.986;6.014;2023-01-29T14:35:18;4.50;99.90
56162;DHT22;42045;52.986;6.014;2023-01-29T14:37:47;4.60;99.90
56162;DHT22;42045;52.986;6.014;2023-01-29T14:40:21;4.60;99.90
56162;DHT22;42045;52.986;6.014;2023-01-29T14:43:03;4.50;99.90
56162;DHT22;42045;52.986;6.014;2023-01-29T14:45:36;4.60;99.90
56162;DHT22;42045;52.986;6.014;2023-01-29T14:50:49;4.50;99.90
56162;DHT22;42045;52.986;6.014;2023-01-29T14:53:33;4.60;99.90
56162;DHT22;42045;52.986;6.014;2023-01-29T14:56:13;4.70;99.90
56162;DHT22;42045;52.986;6.014;2023-01-29T14:58:50;4.60;99.90
56162;DHT22;42045;52.986;6.014;2023-01-29T15:04:02;4.70;99.90
56162;DHT22;42045;52.986;6.014;2023-01-29T15:06:42;4.70;99.90
56162;DHT22;42045;52.986;6.014;2023-01-29T15:09:26;4.70;99.90
56162;DHT22;42045;52.986;6.014;2023-01-29T15:12:14;4.70;99.90
56162;DHT22;42045;52.986;6.014;2023-01-29T15:17:31;4.70;99.90
56162;DHT22;42045;52.986;6.014;2023-01-29T15:20:00;4.70;99.90
56162;DHT22;42045;52.986;6.014;2023-01-29T15:22:26;4.70;99.90
56162;DHT22;42045;52.986;6.014;2023-01-29T15:25:13;4.60;99.90
56162;DHT22;42045;52.986;6.014;2023-01-29T15:27:58;4.70;99.90
56162;DHT22;42045;52.986;6.014;2023-01-29T15:30:31;4.60;99.90
56162;DHT22;42045;52.986;6.014;2023-01-29T15:32:57;4.70;99.90
56162;DHT22;42045;52.986;6.014;2023-01-29T15:35:30;4.80;99.90
56162;DHT22;42045;52.986;6.014;2023-01-29T15:38:04;4.70;99.90
56162;DHT22;42045;52.986;6.014;2023-01-29T15:40:31;4.80;99.90
56162;DHT22;42045;52.986;6.014;2023-01-29T15:42:56;4.70;99.90
56162;DHT22;42045;52.986;6.014;2023-01-29T15:45:26;4.70;99.90
56162;DHT22;42045;52.986;6.014;2023-01-29T15:47:55;4.70;99.90
56162;DHT22;42045;52.986;6.014;2023-01-29T15:50:23;4.60;99.90
56162;DHT22;42045;52.986;6.014;2023-01-29T15:52:51;4.80;99.90
56162;DHT22;42045;52.986;6.014;2023-01-29T15:55:20;4.80;99.90
56162;DHT22;42045;52.986;6.014;2023-01-29T15:57:48;4.70;99.90
56162;DHT22;42045;52.986;6.014;2023-01-29T16:00:25;4.80;99.90
56162;DHT22;42045;52.986;6.014;2023-01-29T16:02:53;4.80;99.90
56162;DHT22;42045;52.986;6.014;2023-01-29T16:05:27;4.70;99.90
56162;DHT22;42045;52.986;6.014;2023-01-29T16:07:55;4.80;99.90
56162;DHT22;42045;52.986;6.014;2023-01-29T16:10:25;4.70;99.90
56162;DHT22;42045;52.986;6.014;2023-01-29T16:12:51;4.80;99.90
56162;DHT22;42045;52.986;6.014;2023-01-29T16:15:32;4.80;99.90
56162;DHT22;42045;52.986;6.014;2023-01-29T16:18:00;4.80;99.90
56162;DHT22;42045;52.986;6.014;2023-01-29T16:20:33;4.80;99.90
56162;DHT22;42045;52.986;6.014;2023-01-29T16:23:01;4.70;99.90
56162;DHT22;42045;52.986;6.014;2023-01-29T16:25:28;4.60;99.90
56162;DHT22;42045;52.986;6.014;2023-01-29T16:27:54;4.70;99.90
56162;DHT22;42045;52.986;6.014;2023-01-29T16:30:24;4.70;99.90
56162;DHT22;42045;52.986;6.014;2023-01-29T16:32:51;4.60;99.90
56162;DHT22;42045;52.986;6.014;2023-01-29T16:35:17;4.60;99.90
56162;DHT22;42045;52.986;6.014;2023-01-29T16:37:47;4.70;99.90
56162;DHT22;42045;52.986;6.014;2023-01-29T16:40:24;4.70;99.90
56162;DHT22;42045;52.986;6.014;2023-01-29T16:45:33;4.60;99.90
56162;DHT22;42045;52.986;6.014;2023-01-29T16:48:00;4.60;99.90
56162;DHT22;42045;52.986;6.014;2023-01-29T16:50:31;4.60;99.90
56162;DHT22;42045;52.986;6.014;2023-01-29T16:53:12;4.70;99.90
56162;DHT22;42045;52.986;6.014;2023-01-29T16:55:45;4.60;99.90
56162;DHT22;42045;52.986;6.014;2023-01-29T16:58:18;4.60;99.90
56162;DHT22;42045;52.986;6.014;2023-01-29T17:00:46;4.70;99.90
56162;DHT22;42045;52.986;6.014;2023-01-29T17:03:14;4.60;99.90
56162;DHT22;42045;52.986;6.014;2023-01-29T17:05:42;4.50;99.90
56162;DHT22;42045;52.986;6.014;2023-01-29T17:08:15;4.60;99.90
56162;DHT22;42045;52.986;6.014;2023-01-29T17:10:48;4.50;99.90
56162;DHT22;42045;52.986;6.014;2023-01-29T17:13:26;4.70;99.90
56162;DHT22;42045;52.986;6.014;2023-01-29T17:16:01;4.60;99.90
56162;DHT22;42045;52.986;6.014;2023-01-29T17:18:28;4.70;99.90
56162;DHT22;42045;52.986;6.014;2023-01-29T17:20:54;4.60;99.90
56162;DHT22;42045;52.986;6.014;2023-01-29T17:23:20;4.70;99.90
56162;DHT22;42045;52.986;6.014;2023-01-29T17:25:47;4.60;99.90
56162;DHT22;42045;52.986;6.014;2023-01-29T17:28:15;4.60;99.90
56162;DHT22;42045;52.986;6.014;2023-01-29T17:30:42;4.70;99.90
56162;DHT22;42045;52.986;6.014;2023-01-29T17:33:12;4.60;99.90
56162;DHT22;42045;52.986;6.014;2023-01-29T17:35:39;4.60;99.90
56162;DHT22;42045;52.986;6.014;2023-01-29T17:38:18;4.70;99.90
56162;DHT22;42045;52.986;6.014;2023-01-29T17:40:51;4.60;99.90
56162;DHT22;42045;52.986;6.014;2023-01-29T17:43:17;4.40;99.90
56162;DHT22;42045;52.986;6.014;2023-01-29T17:45:42;4.50;99.90
56162;DHT22;42045;52.986;6.014;2023-01-29T17:48:24;4.50;99.90
56162;DHT22;42045;52.986;6.014;2023-01-29T17:50:52;4.60;99.90
56162;DHT22;42045;52.986;6.014;2023-01-29T17:53:20;4.50;99.90
56162;DHT22;42045;52.986;6.014;2023-01-29T17:55:46;4.50;99.90
56162;DHT22;42045;52.986;6.014;2023-01-29T17:58:24;4.60;99.90
56162;DHT22;42045;52.986;6.014;2023-01-29T18:00:52;4.60;99.90
56162;DHT22;42045;52.986;6.014;2023-01-29T18:03:18;4.60;99.90
56162;DHT22;42045;52.986;6.014;2023-01-29T18:05:45;4.60;99.90
56162;DHT22;42045;52.986;6.014;2023-01-29T18:08:34;4.50;99.90
56162;DHT22;42045;52.986;6.014;2023-01-29T18:11:00;4.50;99.90
56162;DHT22;42045;52.986;6.014;2023-01-29T18:13:26;4.60;99.90
56162;DHT22;42045;52.986;6.014;2023-01-29T18:15:52;4.50;99.90
56162;DHT22;42045;52.986;6.014;2023-01-29T18:18:20;4.40;99.90
56162;DHT22;42045;52.986;6.014;2023-01-29T18:20:46;4.30;99.90
56162;DHT22;42045;52.986;6.014;2023-01-29T18:23:13;4.30;99.90
56162;DHT22;42045;52.986;6.014;2023-01-29T18:25:39;4.50;99.90
56162;DHT22;42045;52.986;6.014;2023-01-29T18:28:06;4.40;99.90
56162;DHT22;42045;52.986;6.014;2023-01-29T18:30:32;4.40;99.90